Aviation Digital Data Service (ADDS)

Output produced by METARs form (0923 UTC 13 December 2017)
found at http://www.aviationweather.gov/adds/metars/
 
KMEI 130858Z AUTO 00000KT 10SM CLR M01/M03 A3014 RMK AO2 SLP206 T10111028 56010
KMEI 130758Z AUTO 00000KT 10SM CLR M01/M02 A3014 RMK AO2 SLP206 T10111022
KMEI 130658Z AUTO 00000KT 10SM CLR 00/M02 A3016 RMK AO2 SLP212 T00001017
KMEI 130558Z AUTO 00000KT 10SM CLR 01/M02 A3017 RMK AO2 SLP217 T00111017 10089 20011 401560000 52002
KMEI 130458Z AUTO 33004KT 10SM CLR 04/M01 A3017 RMK AO2 SLP217 T00391011
KMEI 130358Z 35006KT 10SM CLR 04/M01 A3017 RMK AO2 SLP215 T00441006
KMEI 130258Z 33004KT 10SM CLR 06/M01 A3017 RMK AO2 SLP215 T00561006 51015
KMEI 130158Z 31006KT 10SM CLR 07/01 A3015 RMK AO2 SLP211 T00670006
KMEI 130058Z 29007KT 10SM CLR 08/01 A3014 RMK AO2 SLP206 T00830006
KMEI 122358Z 29005KT 10SM CLR 08/01 A3012 RMK AO2 SLP201 T00830006 10156 20083 53015
KMEI 122258Z 31006KT 10SM CLR 11/00 A3011 RMK AO2 SLP194 T01060000
KMEI 122158Z 29008KT 10SM CLR 14/01 A3009 RMK AO2 SLP190 T01390006
KMEI 122058Z 34011G20KT 10SM CLR 15/00 A3008 RMK AO2 SLP185 T01500000 56017
KMEI 121958Z 33011G20KT 10SM CLR 15/01 A3009 RMK AO2 SLP187 T01500006
KMEI 121858Z 34011G16KT 10SM CLR 15/01 A3010 RMK AO2 SLP192 T01500011
KMEI 121758Z 32012KT 10SM CLR 14/01 A3013 RMK AO2 SLP201 T01390011 10144 20000 58011
KMEI 121658Z 35015G20KT 10SM CLR 13/01 A3015 RMK AO2 SLP208 T01330011
KMEI 121558Z 36016KT 10SM CLR 12/01 A3017 RMK AO2 SLP214 T01220011
KMEI 121458Z 33012KT 10SM CLR 11/02 A3016 RMK AO2 SLP213 T01060017 51029
KMEI 121358Z 31003KT 10SM CLR 06/02 A3014 RMK AO2 SLP207 T00610022
KMEI 121258Z 00000KT 10SM CLR 01/M01 A3011 RMK AO2 SLP195 T00061006
KMEI 121158Z 19003KT 10SM CLR 01/01 A3008 RMK AO2 SLP185 T00110006 10061 20011 53027
KMEI 121058Z AUTO 00000KT 10SM CLR 02/01 A3005 RMK AO2 SLP174 T00170011
KMEI 120958Z AUTO 00000KT 10SM CLR 02/01 A3001 RMK AO2 SLP162 T00170011
KMEI 120858Z AUTO 00000KT 10SM CLR 02/01 A3000 RMK AO2 SLP156 T00220006 55001
KMEI 120758Z AUTO 00000KT 10SM CLR 04/02 A2999 RMK AO2 SLP153 T00440022
KMEI 120658Z AUTO 19007KT 10SM CLR 05/02 A2998 RMK AO2 SLP150 T00500022
KMEI 120558Z AUTO 19008KT 10SM CLR 05/02 A3000 RMK AO2 SLP157 T00500022 10089 20039 402061011 58016
KMEI 120458Z AUTO 20007KT 10SM CLR 06/03 A3002 RMK AO2 SLP164 T00560028
KMEI 120358Z 21008KT 10SM CLR 07/03 A3003 RMK AO2 SLP168 T00670033
KMEI 120258Z 21008KT 10SM CLR 07/04 A3004 RMK AO2 SLP174 T00670039 58003
KMEI 120158Z 21004KT 10SM CLR 06/04 A3005 RMK AO2 SLP177 T00610039
KMEI 120058Z 22003KT 10SM CLR 08/04 A3006 RMK AO2 SLP179 T00780039
KMEI 112358Z 19006KT 10SM CLR 09/04 A3005 RMK AO2 SLP178 T00890044 10206 20089 56010
KMEI 112258Z 22006KT 10SM CLR 14/03 A3006 RMK AO2 SLP179 T01440033
KMEI 112158Z 23006KT 10SM CLR 18/02 A3007 RMK AO2 SLP182 T01830022
KMEI 112058Z 24010KT 10SM CLR 20/01 A3008 RMK AO2 SLP186 T02000011 56025
KMEI 111958Z VRB06KT 10SM CLR 20/02 A3009 RMK AO2 SLP188 T02000017
KMEI 111858Z 24007KT 10SM CLR 18/03 A3012 RMK AO2 SLP198 T01830028
KMEI 111758Z 21007KT 10SM CLR 16/03 A3016 RMK AO2 SLP212 T01610033 10161 21011 58026
KMEI 111658Z 29005KT 10SM CLR 14/02 A3020 RMK AO2 SLP225 T01390022
KMEI 111558Z 21006KT 10SM CLR 11/02 A3022 RMK AO2 SLP233 T01060017
KMEI 111458Z 18003KT 10SM CLR 06/02 A3024 RMK AO2 SLP240 T00610022 58004
KMEI 111358Z 00000KT 10SM CLR 02/00 A3024 RMK AO2 SLP242 T00170000
KMEI 111258Z 20004KT 10SM CLR M01/M02 A3025 RMK AO2 SLP247 T10061017
KMEI 111158Z 20006KT 10SM CLR M01/M02 A3025 RMK AO2 SLP244 T10061017 10006 21006 55002
KMEI 111058Z AUTO 19006KT 10SM CLR 00/M02 A3023 RMK AO2 SLP238 T00001017
KMEI 110958Z AUTO 20005KT 10SM CLR 00/M02 A3024 RMK AO2 SLP239 T00001017
KMEI 110858Z AUTO 19004KT 10SM CLR 00/M02 A3025 RMK AO2 SLP245 T00001017 56011
KMEI 110758Z AUTO 20007KT 10SM CLR 00/M01 A3026 RMK AO2 SLP247 T00001011
KMEI 110658Z AUTO 20003KT 10SM CLR 00/M01 A3027 RMK AO2 SLP251 T00001011
KMEI 110558Z AUTO 20003KT 10SM CLR 00/M01 A3029 RMK AO2 SLP256 T00001011 10050 20000 401331039 58002
KMEI 110458Z AUTO 21004KT 10SM CLR 00/M01 A3031 RMK AO2 SLP263 T00001006
KMEI 110358Z 18004KT 10SM CLR 01/M01 A3030 RMK AO2 SLP262 T00061006
KMEI 110258Z 21007KT 10SM CLR 02/00 A3029 RMK AO2 SLP259 T00170000 50003
KMEI 110158Z 21007KT 10SM CLR 02/01 A3030 RMK AO2 SLP261 T00220006
KMEI 110058Z 00000KT 10SM CLR 02/01 A3030 RMK AO2 SLP261 T00220006
KMEI 102358Z AUTO 20005KT 10SM CLR 04/01 A3028 RMK AO2 SLP257 T00440011 10133 20044 53001
KMEI 102258Z 23003KT 10SM CLR 08/01 A3028 RMK AO2 SLP255 T00780011
KMEI 102158Z 24005KT 10SM CLR 12/M02 A3028 RMK AO2 SLP254 T01221017
KMEI 102058Z VRB05KT 10SM CLR 13/M03 A3028 RMK AO2 SLP254 T01331028 56026
KMEI 101958Z 26007KT 10SM CLR 13/M03 A3030 RMK AO2 SLP260 T01331028
KMEI 101858Z VRB04KT 10SM CLR 12/M03 A3032 RMK AO2 SLP268 T01171028
KMEI 101758Z 24009KT 10SM CLR 11/M02 A3036 RMK AO2 SLP281 T01061022 10106 21039 58011
KMEI 101658Z 24007KT 10SM CLR 09/M01 A3039 RMK AO2 SLP290 T00941006
KMEI 101558Z 19007KT 10SM CLR 06/02 A3039 RMK AO2 SLP292 T00610017
KMEI 101458Z 18003KT 10SM CLR 02/00 A3039 RMK AO2 SLP293 T00170000 51014
KMEI 101358Z 00000KT 10SM CLR M02/M03 A3038 RMK AO2 SLP290 T10221028
KMEI 101258Z 00000KT 10SM CLR M04/M05 A3037 RMK AO2 SLP285 T10391050
KMEI 101158Z 19003KT 10SM CLR M04/M05 A3035 RMK AO2 SLP279 T10391050 11017 21039 51006
KMEI 101058Z AUTO 00000KT 10SM CLR M03/M05 A3034 RMK AO2 SLP277 T10331050
KMEI 100958Z AUTO 19003KT 10SM CLR M03/M04 A3034 RMK AO2 SLP274 T10331039